»·PEaware :: EJA814 KSTL-KICT

EJA814 :: KSTL-KICT

FLIGHT INFORMATION

Flight Status: Arrived
Operator:
Netjets Aviation
More flights by this operator :: More flights under this callsign
Pilot: Rick S. (2164)
Aircraft: CESSNA 750 CITATION 10
(C750)
More flights by this aircraft type
Origin: KSTL Lambert-St Louis Intl
United States
Destination: KICT Wichita Mid-Continent
United States
More flights between these airports :: More routes between these airports
Route: BGOOD4 VIH GATTY CASSO GABYE
File this flight plan on PilotEdge
Remarks: PBN / A1B2B4B5 DOF / 171126 REG / N948QS OPR / EJA RMK / TCAS SIMBRIEF
Altitude:
(Current/Filed)
28,000ft
Speed:
(Current/Filed)
477kts
Departed: 26-Nov-17 08:09 AM
Arrived: 26-Nov-17 09:18 AM
Distance/Time
Traveled:
339nm/1:09
Distance/Time
To Go:
Arrived

Flight Plot

Page will automatically refresh every two minutes.


Map Options




Map Legend


Flown Route
Filed Route
Departure Airport
Arrival Airport
Navaid (VOR, NDB)
Fix

Horizontal Profiles

Position Reports

Time Latitude Longitude Heading Altitude Ground
Speed
26-Nov-17 08:08 38.746875 -90.373261 235 608ft 0kts
26-Nov-17 08:09 38.746875 -90.373261 235 608ft 0kts
26-Nov-17 08:10 38.746556 -90.371439 120 608ft 14kts
26-Nov-17 08:11 38.748581 -90.372626 301 608ft 17kts
26-Nov-17 08:12 38.746208 -90.379304 241 608ft 23kts
26-Nov-17 08:13 38.747170 -90.382328 250 608ft 0kts
26-Nov-17 08:14 38.747380 -90.384549 300 608ft 51kts
26-Nov-17 08:15 38.767667 -90.422424 306 2756ft 145kts
26-Nov-17 08:16 38.788122 -90.483381 262 4085ft 219kts
26-Nov-17 08:17 38.753029 -90.549113 218 4110ft 232kts
26-Nov-17 08:18 38.696307 -90.590522 213 4117ft 235kts
26-Nov-17 08:19 38.640164 -90.633755 213 4142ft 234kts
26-Nov-17 08:20 38.608733 -90.700034 248 5012ft 225kts
26-Nov-17 08:21 38.577588 -90.777966 247 6875ft 260kts
26-Nov-17 08:22 38.543331 -90.862321 247 9934ft 274kts
26-Nov-17 08:23 38.505919 -90.954995 247 12581ft 308kts
26-Nov-17 08:24 38.465897 -91.052933 247 15556ft 315kts
26-Nov-17 08:25 38.423561 -91.152942 243 18355ft 325kts
26-Nov-17 08:26 38.374122 -91.252593 243 20894ft 340kts
26-Nov-17 08:27 38.323437 -91.357565 244 23367ft 356kts
26-Nov-17 08:28 38.270100 -91.467846 244 25888ft 375kts
26-Nov-17 08:29 38.213484 -91.584359 245 27988ft 401kts
26-Nov-17 08:30 38.154371 -91.709926 254 28379ft 422kts
26-Nov-17 08:31 38.145226 -91.853002 277 28413ft 406kts
26-Nov-17 08:32 38.142906 -91.987329 272 28446ft 411kts
26-Nov-17 08:33 38.139422 -92.051730 271 28419ft 412kts
26-Nov-17 08:34 38.132219 -92.196996 272 28408ft 412kts
26-Nov-17 08:35 38.125976 -92.341626 272 28426ft 406kts
26-Nov-17 08:36 38.119195 -92.483528 272 28412ft 398kts
26-Nov-17 08:37 38.112568 -92.623037 273 28400ft 395kts
26-Nov-17 08:38 38.105536 -92.761670 273 28398ft 393kts
26-Nov-17 08:39 38.098621 -92.900403 273 28394ft 393kts
26-Nov-17 08:40 38.091349 -93.038560 273 28391ft 392kts
26-Nov-17 08:41 38.084086 -93.176606 273 28388ft 392kts
26-Nov-17 08:42 38.076493 -93.315090 273 28380ft 392kts
26-Nov-17 08:43 38.068488 -93.452989 272 28386ft 391kts
26-Nov-17 08:44 38.060637 -93.590713 272 28376ft 390kts
26-Nov-17 08:45 38.052813 -93.727687 272 28384ft 389kts
26-Nov-17 08:46 38.044937 -93.864375 272 28386ft 389kts
26-Nov-17 08:47 38.036509 -94.001540 272 28385ft 389kts
26-Nov-17 08:48 38.028023 -94.138187 272 28394ft 388kts
26-Nov-17 08:49 38.019346 -94.274786 272 28385ft 389kts
26-Nov-17 08:50 38.010544 -94.411831 272 28384ft 389kts
26-Nov-17 08:51 38.002015 -94.548251 272 28384ft 388kts
26-Nov-17 08:52 37.993038 -94.684619 272 28375ft 389kts
26-Nov-17 08:53 37.990306 -94.820662 283 28373ft 379kts
26-Nov-17 08:54 38.008420 -94.951476 284 28368ft 377kts
26-Nov-17 08:55 38.021852 -95.083937 282 28367ft 377kts
26-Nov-17 08:56 38.034849 -95.215615 283 28366ft 376kts
26-Nov-17 08:57 38.048203 -95.347008 283 28363ft 375kts
26-Nov-17 08:58 38.061284 -95.478757 282 28362ft 375kts
26-Nov-17 08:59 38.074116 -95.609958 282 28359ft 375kts
26-Nov-17 09:00 38.086690 -95.741271 282 28355ft 375kts
26-Nov-17 09:01 38.099363 -95.873118 282 28346ft 375kts
26-Nov-17 09:02 38.112146 -96.004428 282 28344ft 375kts
26-Nov-17 09:03 38.124463 -96.136029 281 28336ft 376kts
26-Nov-17 09:04 38.136524 -96.267622 282 28334ft 370kts
26-Nov-17 09:05 38.148107 -96.397040 281 27036ft 367kts
26-Nov-17 09:06 38.159850 -96.525002 281 25032ft 361kts
26-Nov-17 09:07 38.170979 -96.650668 280 23106ft 355kts
26-Nov-17 09:08 38.181826 -96.774570 280 21208ft 351kts
26-Nov-17 09:09 38.192545 -96.896326 281 19343ft 338kts
26-Nov-17 09:10 38.175565 -97.011342 240 17471ft 360kts
26-Nov-17 09:11 38.115075 -97.105628 237 14894ft 318kts
26-Nov-17 09:12 38.065212 -97.192262 238 12013ft 298kts
26-Nov-17 09:13 38.017180 -97.274847 235 8883ft 282kts
26-Nov-17 09:14 37.974038 -97.348581 234 6196ft 241kts
26-Nov-17 09:15 37.937267 -97.409934 217 5099ft 194kts
26-Nov-17 09:16 37.901583 -97.384622 138 5229ft 189kts
26-Nov-17 09:17 37.860422 -97.336678 153 4086ft 201kts
26-Nov-17 09:18 37.811260 -97.344733 203 3502ft 167kts
26-Nov-17 09:19 37.768969 -97.367913 203 2989ft 161kts
26-Nov-17 09:20 37.729560 -97.385880 201 2665ft 156kts
26-Nov-17 09:21 37.689211 -97.404461 200 1871ft 136kts
26-Nov-17 09:22 37.656698 -97.419968 199 1337ft 106kts
26-Nov-17 09:23 37.649558 -97.423931 304 1337ft 0kts
26-Nov-17 09:24 37.652224 -97.423002 17 1337ft 13kts
26-Nov-17 09:25 37.654459 -97.424319 13 1337ft 10kts
26-Nov-17 09:26 37.655688 -97.424768 291 1337ft 0kts
26-Nov-17 09:27 37.655688 -97.424768 291 1337ft 0kts

Navigation Log

Ident Type
Flight plan parsing failed, navigation log unavailable